Time;durP1;ratioP1;P1;durP2;ratioP2;P2;SDS_P1;SDS_P2;PMS_P1;PMS_P2;Temp;Humidity;BMP_temperature;BMP_pressure;BME280_temperature;BME280_humidity;BME280_pressure;Samples;Min_cycle;Max_cycle;Signal;HPM_P1;HPM_P2
2022/05/21 00:00:35;;;;;;;8.73;4.05;;;11.40;99.90;;;;;;5074906;28;20050;-78
2022/05/21 00:03:01;;;;;;;8.85;4.57;;;11.50;99.90;;;;;;5073318;28;20060;-79
2022/05/21 00:05:28;;;;;;;8.05;4.20;;;11.40;99.90;;;;;;5073404;28;20045;-77
2022/05/21 00:07:53;;;;;;;8.32;4.05;;;11.50;99.90;;;;;;5056339;28;20052;-78
2022/05/21 00:10:20;;;;;;;7.60;4.45;;;11.40;99.90;;;;;;5074507;28;20052;-77
2022/05/21 00:12:46;;;;;;;9.65;4.85;;;11.50;99.90;;;;;;5074710;28;20506;-77
2022/05/21 00:15:13;;;;;;;9.88;4.90;;;11.40;99.90;;;;;;5074507;28;20079;-78
2022/05/21 00:17:39;;;;;;;9.80;4.97;;;11.40;99.90;;;;;;5073252;28;20082;-77
2022/05/21 00:20:07;;;;;;;9.77;4.88;;;11.30;99.90;;;;;;5074425;28;20511;-78
2022/05/21 00:22:33;;;;;;;9.52;5.30;;;11.30;99.90;;;;;;5073175;28;20045;-78
2022/05/21 00:24:58;;;;;;;10.93;5.60;;;11.30;99.90;;;;;;5073910;28;20051;-78
2022/05/21 00:27:24;;;;;;;13.85;6.07;;;11.30;99.90;;;;;;5074131;28;20080;-78
2022/05/21 00:29:50;;;;;;;13.02;6.07;;;11.30;99.90;;;;;;5074518;28;20057;-78
2022/05/21 00:32:15;;;;;;;10.85;6.72;;;11.30;99.90;;;;;;5072931;28;20044;-78
2022/05/21 00:34:41;;;;;;;15.25;6.95;;;11.30;99.90;;;;;;5056744;28;20040;-78
2022/05/21 00:37:07;;;;;;;15.10;6.90;;;11.30;99.90;;;;;;5073834;28;20036;-78
2022/05/21 00:39:32;;;;;;;11.25;7.00;;;11.30;99.90;;;;;;5074497;28;20040;-79
2022/05/21 00:42:07;;;;;;;13.35;7.75;;;11.30;99.90;;;;;;5097880;28;20044;-84
2022/05/21 00:44:33;;;;;;;14.63;8.18;;;11.30;99.90;;;;;;5096326;28;20055;-78
2022/05/21 00:46:59;;;;;;;13.40;8.02;;;11.30;99.90;;;;;;5089984;28;20041;-78
2022/05/21 00:49:34;;;;;;;13.85;8.90;;;11.40;99.90;;;;;;5098397;28;20033;-79
2022/05/21 00:52:10;;;;;;;15.63;9.15;;;11.40;99.90;;;;;;5081444;28;20040;-80
2022/05/21 00:54:42;;;;;;;13.73;9.13;;;11.40;99.90;;;;;;5077792;28;20049;-76
2022/05/21 00:57:15;;;;;;;16.15;10.00;;;11.50;99.90;;;;;;5077274;28;20165;-78
2022/05/21 00:59:47;;;;;;;16.92;9.98;;;11.50;99.90;;;;;;5072575;28;20047;-77
2022/05/21 01:02:14;;;;;;;16.48;10.15;;;11.50;99.90;;;;;;5071644;28;20060;-78
2022/05/21 01:04:42;;;;;;;17.02;11.48;;;11.50;99.90;;;;;;5073439;28;20408;-77
2022/05/21 01:07:08;;;;;;;20.63;12.20;;;11.50;99.90;;;;;;5073034;28;20040;-78
2022/05/21 01:09:34;;;;;;;17.92;11.32;;;11.50;99.90;;;;;;5073491;28;20149;-78
2022/05/21 01:12:01;;;;;;;16.75;11.88;;;11.50;99.90;;;;;;5072056;28;20048;-78
2022/05/21 01:14:27;;;;;;;18.35;12.00;;;11.60;99.90;;;;;;5073398;28;20128;-77
2022/05/21 01:16:52;;;;;;;18.05;12.75;;;11.60;99.90;;;;;;5072027;28;20139;-78
2022/05/21 01:19:18;;;;;;;18.98;13.32;;;11.60;99.90;;;;;;5071719;28;20079;-78
2022/05/21 01:21:44;;;;;;;21.48;13.52;;;11.60;99.90;;;;;;5071682;28;20061;-78
2022/05/21 01:24:10;;;;;;;21.05;14.18;;;11.60;99.90;;;;;;5055216;28;20055;-78
2022/05/21 01:26:36;;;;;;;23.02;14.68;;;11.70;99.90;;;;;;5072039;28;20045;-78
2022/05/21 01:29:03;;;;;;;20.88;15.48;;;11.70;99.90;;;;;;5055471;28;20093;-78
2022/05/21 01:31:32;;;;;;;21.33;14.95;;;11.80;99.90;;;;;;5055502;28;20124;-77
2022/05/21 01:33:58;;;;;;;22.73;15.05;;;11.90;99.90;;;;;;5072389;28;20056;-78
2022/05/21 01:36:24;;;;;;;24.50;15.25;;;11.80;99.90;;;;;;5072809;28;20044;-79
2022/05/21 01:38:50;;;;;;;26.55;16.65;;;11.90;99.90;;;;;;5073182;28;20040;-78
2022/05/21 01:41:15;;;;;;;25.45;16.50;;;11.90;99.90;;;;;;5072686;28;20078;-78
2022/05/21 01:46:30;;;;;;;26.83;16.35;;;11.90;99.90;;;;;;5053272;28;20138;-78
2022/05/21 01:48:56;;;;;;;26.70;17.83;;;12.00;99.90;;;;;;5073035;28;20609;-78
2022/05/21 01:51:21;;;;;;;26.75;17.75;;;12.00;99.90;;;;;;5072690;28;20044;-78
2022/05/21 01:53:47;;;;;;;25.25;17.38;;;12.10;99.90;;;;;;5071897;28;20488;-78
2022/05/21 01:56:13;;;;;;;32.47;19.33;;;12.00;99.90;;;;;;5072423;28;20044;-78
2022/05/21 01:58:39;;;;;;;27.92;18.67;;;12.10;99.90;;;;;;5072717;28;20044;-78
2022/05/21 02:01:05;;;;;;;28.00;19.27;;;12.10;99.90;;;;;;5072620;28;20044;-79
2022/05/21 02:03:30;;;;;;;31.98;19.55;;;12.10;99.90;;;;;;5055364;28;20094;-78
2022/05/21 02:05:56;;;;;;;31.42;19.80;;;12.20;99.90;;;;;;5055087;28;20048;-78
2022/05/21 02:08:22;;;;;;;33.53;20.05;;;12.20;99.90;;;;;;5071025;28;20056;-78
2022/05/21 02:10:48;;;;;;;31.65;20.40;;;12.20;99.90;;;;;;5072627;28;20048;-79
2022/05/21 02:13:25;;;;;;;27.98;21.25;;;12.20;99.90;;;;;;5071141;28;20488;-79
2022/05/21 02:15:50;;;;;;;31.08;20.48;;;12.30;99.90;;;;;;5075735;28;20057;-78
2022/05/21 02:18:16;;;;;;;33.80;21.33;;;12.20;99.90;;;;;;5076591;28;20101;-78
2022/05/21 02:20:42;;;;;;;31.90;20.20;;;12.30;99.90;;;;;;5076830;28;20044;-78
2022/05/21 02:23:08;;;;;;;29.38;19.25;;;12.30;99.90;;;;;;5075301;28;20053;-79
2022/05/21 02:25:33;;;;;;;29.88;19.48;;;12.30;99.90;;;;;;5042465;28;20044;-78
2022/05/21 02:27:59;;;;;;;29.00;18.05;;;12.30;99.90;;;;;;5042186;28;20044;-78
2022/05/21 02:30:25;;;;;;;31.25;17.75;;;12.40;99.90;;;;;;5078144;28;20135;-79
2022/05/21 02:32:50;;;;;;;32.22;18.30;;;12.40;99.90;;;;;;5094358;28;20041;-78
2022/05/21 02:35:16;;;;;;;28.48;17.17;;;12.40;99.90;;;;;;5096088;28;20074;-78
2022/05/21 02:40:26;;;;;;;30.13;16.52;;;12.50;99.90;;;;;;5080347;28;20037;-81
2022/05/21 02:42:54;;;;;;;28.98;15.95;;;12.50;99.90;;;;;;5134798;28;20028;-79
2022/05/21 02:45:27;;;;;;;23.52;14.35;;;12.40;99.90;;;;;;5100744;28;20514;-83
2022/05/21 02:47:53;;;;;;;23.90;14.98;;;12.50;99.90;;;;;;5083829;28;20044;-78
2022/05/21 02:50:28;;;;;;;28.42;14.60;;;12.50;99.90;;;;;;5074012;28;20051;-78
2022/05/21 02:52:54;;;;;;;30.10;13.80;;;12.60;99.90;;;;;;5074907;28;20087;-78
2022/05/21 02:55:19;;;;;;;25.70;14.13;;;12.50;99.90;;;;;;5058535;28;20083;-78
2022/05/21 02:57:45;;;;;;;26.60;12.85;;;12.50;99.90;;;;;;5058417;28;20454;-78
2022/05/21 03:00:17;;;;;;;25.70;12.52;;;12.50;99.90;;;;;;5074983;28;20119;-78
2022/05/21 03:02:42;;;;;;;22.80;12.00;;;12.60;99.90;;;;;;5076217;28;20048;-78
2022/05/21 03:05:08;;;;;;;23.35;12.32;;;12.60;99.90;;;;;;5075785;28;20040;-78
2022/05/21 03:07:45;;;;;;;25.05;11.40;;;12.60;99.90;;;;;;5075287;28;20048;-78
2022/05/21 03:10:23;;;;;;;27.67;9.98;;;12.60;99.90;;;;;;5042021;28;20131;-78
2022/05/21 03:12:54;;;;;;;26.27;9.55;;;12.60;99.90;;;;;;5074718;28;20442;-78
2022/05/21 03:15:26;;;;;;;24.20;7.22;;;12.60;99.90;;;;;;5058106;28;20045;-78
2022/05/21 03:17:51;;;;;;;19.95;7.15;;;12.70;99.90;;;;;;5075485;28;20399;-78
2022/05/21 03:20:19;;;;;;;25.17;7.18;;;12.70;99.90;;;;;;5075236;28;20128;-78
2022/05/21 03:22:44;;;;;;;25.98;6.90;;;12.70;99.90;;;;;;5075798;28;20128;-78
2022/05/21 03:25:10;;;;;;;19.10;6.10;;;12.70;99.90;;;;;;5057277;28;20497;-78
2022/05/21 03:27:36;;;;;;;22.00;6.05;;;12.70;99.90;;;;;;5057344;28;20067;-78
2022/05/21 03:30:04;;;;;;;18.83;5.25;;;12.70;99.90;;;;;;5074143;28;20044;-79
2022/05/21 03:32:29;;;;;;;21.33;5.95;;;12.80;99.90;;;;;;5073696;28;20071;-78
2022/05/21 03:34:55;;;;;;;23.85;5.50;;;12.70;99.90;;;;;;5075318;28;20044;-78
2022/05/21 03:37:20;;;;;;;19.25;5.68;;;12.80;99.90;;;;;;5075065;28;20048;-79
2022/05/21 03:39:46;;;;;;;23.38;5.70;;;12.80;99.90;;;;;;5075384;28;20117;-78
2022/05/21 03:42:12;;;;;;;20.85;5.43;;;12.80;99.90;;;;;;5057366;28;20037;-79
2022/05/21 03:44:37;;;;;;;18.80;5.05;;;12.80;99.90;;;;;;5073590;28;20060;-78
2022/05/21 03:47:03;;;;;;;21.85;5.38;;;12.80;99.90;;;;;;5074829;28;20044;-79
2022/05/21 03:49:30;;;;;;;16.33;4.72;;;12.90;99.90;;;;;;5074656;28;20047;-79
2022/05/21 03:51:55;;;;;;;25.38;5.60;;;12.90;99.90;;;;;;5074191;28;20446;-78
2022/05/21 03:54:21;;;;;;;20.17;5.40;;;12.80;99.90;;;;;;5073281;28;20036;-79
2022/05/21 03:56:47;;;;;;;23.70;5.22;;;12.90;99.90;;;;;;5075028;28;20040;-78
2022/05/21 03:59:12;;;;;;;22.02;4.75;;;12.90;99.90;;;;;;5075070;28;20485;-79
2022/05/21 04:01:40;;;;;;;19.30;4.43;;;12.90;99.90;;;;;;5074323;28;20123;-79
2022/05/21 04:04:06;;;;;;;19.55;4.90;;;12.90;99.90;;;;;;5057054;28;20117;-79
2022/05/21 04:06:31;;;;;;;22.90;4.90;;;12.90;99.90;;;;;;5074529;28;20446;-79
2022/05/21 04:08:57;;;;;;;16.55;4.65;;;12.90;99.90;;;;;;5074603;28;20135;-78
2022/05/21 04:11:22;;;;;;;20.85;4.43;;;12.90;99.90;;;;;;5074429;28;20056;-79
2022/05/21 04:13:48;;;;;;;19.10;4.65;;;13.00;99.90;;;;;;5074771;28;20048;-79
2022/05/21 04:16:14;;;;;;;17.77;4.50;;;12.90;99.90;;;;;;5075596;28;20040;-79
2022/05/21 04:18:39;;;;;;;22.45;4.80;;;12.90;99.90;;;;;;5074226;28;20470;-79
2022/05/21 04:21:05;;;;;;;20.95;4.60;;;12.90;99.90;;;;;;5083234;28;20048;-85
2022/05/21 04:23:31;;;;;;;15.07;4.18;;;13.00;99.90;;;;;;5096119;28;20048;-80
2022/05/21 04:25:56;;;;;;;12.23;3.95;;;13.00;99.90;;;;;;5095496;28;20037;-79
2022/05/21 04:28:22;;;;;;;14.55;4.35;;;13.00;99.90;;;;;;5095467;28;20056;-82
2022/05/21 04:30:47;;;;;;;15.57;3.70;;;13.00;99.90;;;;;;5081788;28;20024;-80
2022/05/21 04:33:13;;;;;;;16.63;3.70;;;13.00;99.90;;;;;;5099215;28;20064;-80
2022/05/21 04:38:23;;;;;;;14.63;3.47;;;13.00;99.90;;;;;;5082537;28;20064;-83
2022/05/21 04:40:48;;;;;;;16.20;3.75;;;13.00;99.90;;;;;;5073828;28;20048;-83
2022/05/21 04:43:14;;;;;;;13.00;3.15;;;13.10;99.90;;;;;;5039852;28;20052;-82
2022/05/21 04:45:40;;;;;;;14.07;3.47;;;13.00;99.90;;;;;;5072361;28;20040;-81
2022/05/21 04:48:07;;;;;;;14.07;3.25;;;13.10;99.90;;;;;;5074033;28;20094;-82
2022/05/21 04:50:34;;;;;;;13.35;3.30;;;13.10;99.90;;;;;;5073963;28;20044;-82
2022/05/21 04:53:00;;;;;;;15.65;3.10;;;13.10;99.90;;;;;;5056179;28;20049;-82
2022/05/21 04:55:25;;;;;;;12.98;2.97;;;13.10;99.90;;;;;;5056163;28;20049;-81
2022/05/21 04:57:51;;;;;;;9.50;3.15;;;13.10;99.90;;;;;;5039310;28;20095;-81
2022/05/21 05:00:17;;;;;;;12.63;2.53;;;13.20;99.90;;;;;;5073775;28;20036;-82
2022/05/21 05:02:42;;;;;;;13.23;2.80;;;13.20;99.90;;;;;;5072611;28;20556;-82
2022/05/21 05:05:12;;;;;;;12.30;2.67;;;13.20;99.90;;;;;;5056163;28;20053;-82
2022/05/21 05:07:38;;;;;;;11.70;2.90;;;13.20;99.90;;;;;;5072136;28;20119;-83
2022/05/21 05:10:05;;;;;;;10.82;2.75;;;13.30;99.90;;;;;;5072448;28;20059;-82
2022/05/21 05:12:31;;;;;;;12.98;3.65;;;13.30;99.90;;;;;;5072626;28;20047;-82
2022/05/21 05:14:57;;;;;;;12.77;3.35;;;13.30;99.90;;;;;;5072533;28;20064;-82
2022/05/21 05:17:24;;;;;;;18.02;2.70;;;13.30;99.90;;;;;;5055931;28;20044;-83
2022/05/21 05:19:56;;;;;;;11.85;2.72;;;13.30;99.90;;;;;;5072578;28;20053;-81
2022/05/21 05:22:22;;;;;;;10.38;3.08;;;13.30;99.90;;;;;;5072229;28;20051;-80
2022/05/21 05:24:47;;;;;;;10.50;2.67;;;13.40;99.90;;;;;;5055818;28;20059;-82
2022/05/21 05:27:13;;;;;;;11.77;2.58;;;13.40;99.90;;;;;;5073265;28;20480;-84
2022/05/21 05:29:39;;;;;;;10.13;2.75;;;13.40;99.90;;;;;;5072083;28;20365;-81
2022/05/21 05:32:05;;;;;;;14.57;2.83;;;13.40;99.90;;;;;;5055751;28;20044;-82
2022/05/21 05:34:31;;;;;;;11.63;2.80;;;13.50;99.90;;;;;;5072891;28;20094;-82
2022/05/21 05:36:56;;;;;;;11.88;2.72;;;13.50;99.90;;;;;;5073471;28;20037;-81
2022/05/21 05:39:22;;;;;;;12.32;2.88;;;13.50;99.90;;;;;;5073052;28;20446;-82
2022/05/21 05:41:48;;;;;;;13.10;3.33;;;13.50;99.90;;;;;;5039986;28;20491;-81
2022/05/21 05:44:14;;;;;;;15.27;3.22;;;13.50;99.90;;;;;;5073255;28;20098;-82
2022/05/21 05:46:39;;;;;;;12.82;2.35;;;13.60;99.90;;;;;;5056251;28;20040;-83
2022/05/21 05:49:05;;;;;;;11.27;2.55;;;13.60;99.90;;;;;;5056839;28;20135;-82
2022/05/21 05:51:31;;;;;;;13.40;2.90;;;13.70;99.90;;;;;;5074395;28;20555;-83
2022/05/21 05:53:57;;;;;;;13.00;2.75;;;13.70;99.90;;;;;;5073866;28;20049;-82
2022/05/21 05:56:23;;;;;;;16.05;3.17;;;13.80;99.90;;;;;;5073580;28;20047;-83
2022/05/21 06:01:33;;;;;;;9.65;2.85;;;13.80;99.90;;;;;;5073612;28;20060;-83
2022/05/21 06:03:58;;;;;;;13.02;3.15;;;13.90;99.90;;;;;;5055539;28;20496;-81
2022/05/21 06:06:24;;;;;;;10.93;2.78;;;13.90;99.90;;;;;;5072247;28;20045;-82
2022/05/21 06:08:50;;;;;;;13.38;2.80;;;14.00;99.90;;;;;;5074114;28;20074;-82
2022/05/21 06:11:16;;;;;;;13.73;2.95;;;14.00;99.90;;;;;;5080593;28;20041;-82
2022/05/21 06:13:42;;;;;;;12.98;2.88;;;14.00;99.90;;;;;;5096849;28;20815;-83
2022/05/21 06:16:07;;;;;;;13.85;3.15;;;14.00;99.90;;;;;;5096955;28;20044;-84
2022/05/21 06:18:36;;;;;;;9.43;2.80;;;14.00;99.90;;;;;;5097458;28;20040;-83
2022/05/21 06:21:03;;;;;;;12.15;2.90;;;14.00;99.90;;;;;;5096983;28;20056;-84
2022/05/21 06:23:33;;;;;;;14.52;2.95;;;14.10;99.90;;;;;;5096644;28;20048;-81
2022/05/21 06:26:00;;;;;;;12.88;2.95;;;14.10;99.90;;;;;;5077313;28;20488;-80
2022/05/21 06:28:28;;;;;;;12.68;2.85;;;14.10;99.90;;;;;;5056645;28;20480;-80
2022/05/21 06:30:54;;;;;;;13.82;3.03;;;14.10;99.90;;;;;;5056831;28;20492;-80
2022/05/21 06:33:25;;;;;;;13.93;3.00;;;14.20;99.90;;;;;;5039637;28;20181;-79
2022/05/21 06:36:08;;;;;;;14.50;3.50;;;14.10;99.90;;;;;;5072063;28;20100;-79
2022/05/21 06:38:34;;;;;;;11.80;2.63;;;14.20;99.90;;;;;;5073953;28;20076;-80
2022/05/21 06:41:00;;;;;;;11.45;2.70;;;14.30;99.90;;;;;;5071780;28;20110;-80
2022/05/21 06:43:26;;;;;;;16.48;2.83;;;14.30;99.90;;;;;;5073126;28;20052;-80
2022/05/21 06:45:52;;;;;;;13.00;2.85;;;14.40;99.90;;;;;;5054592;28;20044;-81
2022/05/21 06:48:17;;;;;;;15.18;3.22;;;14.50;99.90;;;;;;5072329;28;20499;-80
2022/05/21 06:50:43;;;;;;;11.20;2.80;;;14.50;99.90;;;;;;5072348;28;20045;-80
2022/05/21 06:53:09;;;;;;;12.07;2.95;;;14.50;99.90;;;;;;5054645;28;20131;-81
2022/05/21 06:55:35;;;;;;;10.55;2.65;;;14.60;99.90;;;;;;5072128;28;20044;-81
2022/05/21 06:58:00;;;;;;;15.13;2.92;;;14.60;99.90;;;;;;5070903;28;20046;-80
2022/05/21 07:00:26;;;;;;;13.70;2.83;;;14.60;99.90;;;;;;5072842;28;20446;-80
2022/05/21 07:02:53;;;;;;;10.45;2.25;;;14.60;99.90;;;;;;5074509;28;20040;-80
2022/05/21 07:08:05;;;;;;;12.55;2.63;;;14.60;99.90;;;;;;5074195;28;20396;-79
2022/05/21 07:10:31;;;;;;;11.27;2.30;;;14.70;99.90;;;;;;5042182;28;20071;-82
2022/05/21 07:12:57;;;;;;;10.63;2.53;;;14.70;99.90;;;;;;5041451;28;20044;-80
2022/05/21 07:15:23;;;;;;;10.02;2.65;;;14.80;99.90;;;;;;5075574;28;20140;-80
2022/05/21 07:17:48;;;;;;;12.18;2.70;;;14.80;99.90;;;;;;5073958;28;20455;-80
2022/05/21 07:20:16;;;;;;;13.27;2.70;;;14.80;99.90;;;;;;5074350;28;20131;-81
2022/05/21 07:22:43;;;;;;;12.02;2.33;;;14.80;99.90;;;;;;5058194;28;20045;-80
2022/05/21 07:25:11;;;;;;;11.05;2.40;;;14.80;99.90;;;;;;5057883;28;20044;-82
2022/05/21 07:27:36;;;;;;;11.80;2.60;;;14.90;99.90;;;;;;5057586;28;20439;-82
2022/05/21 07:30:02;;;;;;;14.95;2.58;;;15.10;99.90;;;;;;5040899;28;20098;-81
2022/05/21 07:32:28;;;;;;;11.75;2.30;;;15.30;99.90;;;;;;5057711;28;20047;-85
2022/05/21 07:35:06;;;;;;;14.98;2.65;;;15.30;99.90;;;;;;5074214;28;20049;-82
2022/05/21 07:37:32;;;;;;;12.20;2.67;;;15.30;99.90;;;;;;5057873;28;20048;-82
2022/05/21 07:39:58;;;;;;;8.93;2.33;;;15.30;99.90;;;;;;5057654;28;20044;-82
2022/05/21 07:42:24;;;;;;;11.18;2.38;;;15.30;99.90;;;;;;5057904;28;20044;-83
2022/05/21 07:44:49;;;;;;;13.35;2.65;;;15.40;99.90;;;;;;5058169;28;20924;-82
2022/05/21 07:47:15;;;;;;;14.50;2.70;;;15.40;99.90;;;;;;5073574;28;20449;-84
2022/05/21 07:49:41;;;;;;;12.45;3.22;;;15.50;99.90;;;;;;5074174;28;20127;-83
2022/05/21 07:52:06;;;;;;;14.55;2.28;;;15.50;99.90;;;;;;5075356;28;20072;-84
2022/05/21 07:54:36;;;;;;;12.48;2.50;;;15.50;99.90;;;;;;5075093;28;20062;-83
2022/05/21 07:57:02;;;;;;;11.60;2.72;;;15.50;99.90;;;;;;5074654;28;20040;-83
2022/05/21 07:59:28;;;;;;;11.68;2.72;;;15.40;99.90;;;;;;5062076;28;20106;-86
2022/05/21 08:01:54;;;;;;;12.45;2.67;;;15.50;99.90;;;;;;5100125;28;20033;-96
2022/05/21 08:04:19;;;;;;;11.90;2.78;;;15.60;99.90;;;;;;5100196;28;20052;-83
2022/05/21 08:06:45;;;;;;;9.52;2.65;;;15.60;99.90;;;;;;5099193;28;20033;-84
2022/05/21 08:09:11;;;;;;;13.48;2.60;;;15.70;99.90;;;;;;5082044;28;20056;-83
2022/05/21 08:11:37;;;;;;;13.30;3.13;;;15.80;99.90;;;;;;5099319;28;20071;-85
2022/05/21 08:14:03;;;;;;;11.40;2.80;;;15.80;99.90;;;;;;5099153;28;20124;-93
2022/05/21 08:16:29;;;;;;;10.55;2.22;;;15.70;99.90;;;;;;5082598;28;20028;-84
2022/05/21 08:18:55;;;;;;;13.25;2.38;;;15.70;99.90;;;;;;5085470;28;20123;-81
2022/05/21 08:21:20;;;;;;;9.60;2.45;;;15.60;99.90;;;;;;5073353;28;20055;-82
2022/05/21 08:29:14;;;;;;;11.18;2.50;;;15.80;99.90;;;;;;5074192;28;20403;-83
2022/05/21 08:31:40;;;;;;;10.02;2.47;;;15.80;99.90;;;;;;5073212;28;20045;-83
2022/05/21 08:34:06;;;;;;;13.57;2.63;;;15.70;99.90;;;;;;5073733;28;20095;-83
2022/05/21 08:36:31;;;;;;;9.27;2.28;;;15.70;99.90;;;;;;5072953;28;20041;-83
2022/05/21 08:38:57;;;;;;;10.20;2.17;;;15.60;99.90;;;;;;5073972;28;20044;-83
2022/05/21 08:41:27;;;;;;;10.38;2.70;;;15.60;99.90;;;;;;5074253;28;20064;-82
2022/05/21 08:44:09;;;;;;;12.48;2.67;;;15.80;99.90;;;;;;5074345;28;20055;-82
2022/05/21 08:46:53;;;;;;;10.88;2.35;;;15.90;99.90;;;;;;5074667;28;20396;-82
2022/05/21 08:49:37;;;;;;;12.32;2.60;;;15.90;99.90;;;;;;5073425;28;20132;-84
2022/05/21 08:52:30;;;;;;;8.45;2.00;;;15.80;99.90;;;;;;5073550;28;20055;-84
2022/05/21 08:54:57;;;;;;;9.18;2.30;;;15.80;99.90;;;;;;5056312;28;20056;-83
2022/05/21 08:57:49;;;;;;;13.40;2.50;;;15.70;99.90;;;;;;5056159;28;20044;-82
2022/05/21 09:00:38;;;;;;;11.23;2.40;;;15.80;99.90;;;;;;5040393;28;20447;-83
2022/05/21 09:03:08;;;;;;;13.18;2.13;;;15.80;99.90;;;;;;5057097;28;20601;-84
2022/05/21 09:05:34;;;;;;;12.18;2.40;;;16.00;99.90;;;;;;5039721;28;20110;-83
2022/05/21 09:08:22;;;;;;;12.13;2.50;;;16.10;99.90;;;;;;5055707;28;20049;-83
2022/05/21 09:11:03;;;;;;;13.95;2.90;;;16.10;99.90;;;;;;5072434;28;20488;-82
2022/05/21 09:13:44;;;;;;;9.63;2.42;;;16.20;99.90;;;;;;5040368;28;20488;-83
2022/05/21 09:19:03;;;;;;;12.45;2.70;;;16.30;99.90;;;;;;5072453;28;20056;-83
2022/05/21 09:21:29;;;;;;;10.02;2.15;;;16.30;99.90;;;;;;5072623;28;20182;-82
2022/05/21 09:24:01;;;;;;;7.88;2.10;;;16.30;99.90;;;;;;5055115;28;20127;-82
2022/05/21 09:26:43;;;;;;;10.15;1.98;;;16.40;99.90;;;;;;5071926;28;20055;-82
2022/05/21 09:29:25;;;;;;;9.45;2.50;;;16.40;99.90;;;;;;5057518;28;20127;-83
2022/05/21 09:31:53;;;;;;;13.02;1.90;;;16.30;99.90;;;;;;5072477;28;20182;-82
2022/05/21 09:34:23;;;;;;;10.70;2.10;;;16.20;99.90;;;;;;5071794;28;20131;-82
2022/05/21 09:36:49;;;;;;;10.98;2.28;;;16.20;99.90;;;;;;5072116;28;20056;-83
2022/05/21 09:39:40;;;;;;;9.30;1.98;;;16.30;99.90;;;;;;5071929;28;20052;-83
2022/05/21 09:45:25;;;;;;;8.52;1.90;;;16.70;99.90;;;;;;5072753;28;20063;-83
2022/05/21 09:48:06;;;;;;;7.00;1.77;;;16.80;99.90;;;;;;5071848;28;20443;-83
2022/05/21 09:50:44;;;;;;;9.57;2.33;;;16.90;99.90;;;;;;5080658;28;20472;-84
2022/05/21 09:53:37;;;;;;;8.15;1.90;;;16.90;99.90;;;;;;5081500;28;20053;-84
2022/05/21 09:56:09;;;;;;;6.50;1.77;;;16.90;99.90;;;;;;5095521;28;20044;-88
2022/05/21 09:58:39;;;;;;;10.18;2.03;;;16.90;99.90;;;;;;5097276;28;20035;-88
2022/05/21 10:01:06;;;;;;;;;;;16.90;99.90;;;;;;5081331;28;20039;-85
2022/05/21 10:03:52;;;;;;;8.43;2.05;;;16.90;99.20;;;;;;5097335;28;19970;-91
2022/05/21 10:06:32;;;;;;;9.43;2.05;;;16.90;99.10;;;;;;5097016;28;20040;-95
2022/05/21 10:12:12;;;;;;;8.90;2.20;;;16.70;99.20;;;;;;5083163;28;20049;-84
2022/05/21 10:14:42;;;;;;;9.88;1.90;;;16.70;99.80;;;;;;5072612;28;20052;-82
2022/05/21 10:17:42;;;;;;;6.47;1.63;;;16.70;99.30;;;;;;5073196;28;20123;-83
2022/05/21 10:20:41;;;;;;;9.32;1.90;;;16.70;98.40;;;;;;5049950;28;20427;-84
2022/05/21 10:23:41;;;;;;;8.90;1.70;;;16.80;98.60;;;;;;5049695;28;20060;-82
2022/05/21 10:26:29;;;;;;;9.88;1.95;;;16.70;98.50;;;;;;5072891;28;20080;-82
2022/05/21 10:29:29;;;;;;;8.63;1.95;;;16.60;99.10;;;;;;5056709;28;20063;-82
2022/05/21 10:32:05;;;;;;;8.60;1.80;;;16.80;98.30;;;;;;5071547;28;20041;-83
2022/05/21 10:34:36;;;;;;;6.43;1.77;;;16.90;98.40;;;;;;5071372;28;20480;-82
2022/05/21 10:37:30;;;;;;;5.50;1.60;;;17.10;97.70;;;;;;5075261;28;20484;-84
2022/05/21 10:40:17;;;;;;;8.77;2.05;;;17.20;97.60;;;;;;5075184;28;20041;-81
2022/05/21 10:42:58;;;;;;;7.45;1.58;;;17.20;97.10;;;;;;5075504;28;20049;-82
2022/05/21 10:45:46;;;;;;;6.40;1.65;;;17.20;96.90;;;;;;5058443;28;20067;-83
2022/05/21 10:48:22;;;;;;;7.78;1.80;;;17.30;96.40;;;;;;5075021;28;20055;-83
2022/05/21 10:51:15;;;;;;;8.13;1.52;;;17.20;96.60;;;;;;5075101;28;20093;-82
2022/05/21 10:54:00;;;;;;;9.00;1.85;;;17.10;96.00;;;;;;5059066;28;20063;-83
2022/05/21 10:56:48;;;;;;;10.73;1.85;;;17.00;97.10;;;;;;5074776;28;20048;-84
2022/05/21 10:59:37;;;;;;;10.05;1.88;;;16.90;97.50;;;;;;5074793;28;20048;-81
2022/05/21 11:02:41;;;;;;;8.27;2.03;;;16.90;98.60;;;;;;5075299;28;20051;-82
2022/05/21 11:05:30;;;;;;;10.13;2.22;;;17.00;98.50;;;;;;5053730;28;20055;-83
2022/05/21 11:08:31;;;;;;;7.83;2.00;;;17.30;97.80;;;;;;5036978;28;20041;-82
2022/05/21 11:11:17;;;;;;;10.93;2.00;;;17.40;97.50;;;;;;5069397;28;20063;-83
2022/05/21 11:14:00;;;;;;;7.63;2.33;;;17.60;97.30;;;;;;5074564;28;20135;-81
2022/05/21 11:16:29;;;;;;;6.72;1.75;;;17.80;96.90;;;;;;5058738;28;20049;-81
2022/05/21 11:18:57;;;;;;;9.80;2.05;;;17.90;96.30;;;;;;5074512;28;20480;-82
2022/05/21 11:21:37;;;;;;;9.40;1.83;;;18.00;96.30;;;;;;5075352;28;20056;-82
2022/05/21 11:24:25;;;;;;;9.40;2.10;;;18.00;94.40;;;;;;5058282;28;20127;-82
2022/05/21 11:26:55;;;;;;;10.50;2.38;;;17.90;94.00;;;;;;5059705;28;20120;-83
2022/05/21 11:29:39;;;;;;;9.02;2.00;;;17.70;95.10;;;;;;5057462;28;20053;-87
2022/05/21 11:37:46;;;;;;;7.90;2.17;;;17.40;96.20;;;;;;5075506;28;20052;-81
2022/05/21 11:40:50;;;;;;;6.82;1.92;;;17.50;96.30;;;;;;5057803;28;20056;-82
2022/05/21 11:43:19;;;;;;;10.02;2.25;;;17.60;96.40;;;;;;5075767;28;20090;-84
2022/05/21 11:46:01;;;;;;;8.18;2.05;;;17.60;95.60;;;;;;5057344;28;20086;-84
2022/05/21 11:48:28;;;;;;;6.82;2.00;;;17.70;95.30;;;;;;5074274;28;20128;-86
2022/05/21 11:51:22;;;;;;;7.60;2.00;;;17.70;95.90;;;;;;5057866;28;20114;-87
2022/05/21 11:53:48;;;;;;;7.72;2.10;;;17.80;95.00;;;;;;5076898;28;20044;-87
2022/05/21 11:56:14;;;;;;;7.10;2.15;;;17.70;95.40;;;;;;5062273;28;20067;-87
2022/05/21 11:58:58;;;;;;;9.27;2.17;;;17.60;95.10;;;;;;5059687;28;20123;-87
2022/05/21 12:01:36;;;;;;;9.65;2.20;;;17.40;94.50;;;;;;5095710;28;20066;-86
2022/05/21 12:04:02;;;;;;;10.95;1.88;;;17.30;95.00;;;;;;5080235;28;20028;-89
2022/05/21 12:06:37;;;;;;;8.13;2.03;;;17.30;94.40;;;;;;5065420;28;20092;-96
2022/05/21 12:09:26;;;;;;;7.95;1.77;;;17.20;94.30;;;;;;5099556;28;20056;-84
2022/05/21 12:11:52;;;;;;;6.20;1.60;;;17.20;94.70;;;;;;5133136;28;20088;-86
2022/05/21 12:14:25;;;;;;;10.98;2.05;;;17.20;94.80;;;;;;5082628;28;20045;-85
2022/05/21 12:16:59;;;;;;;6.25;1.60;;;17.30;95.30;;;;;;5077009;28;20041;-82
2022/05/21 12:19:54;;;;;;;4.72;1.58;;;17.50;94.50;;;;;;5057267;28;20491;-82
2022/05/21 12:22:47;;;;;;;6.80;1.77;;;17.60;92.70;;;;;;5058841;28;20516;-83
2022/05/21 12:25:44;;;;;;;7.55;2.10;;;17.80;94.90;;;;;;5071763;28;20060;-86
2022/05/21 12:28:10;;;;;;;8.55;1.83;;;17.90;93.00;;;;;;5057102;28;20400;-83
2022/05/21 12:30:35;;;;;;;8.50;1.90;;;18.00;94.20;;;;;;5074339;28;20040;-82
2022/05/21 12:33:01;;;;;;;7.68;1.90;;;18.00;94.60;;;;;;5074542;28;20080;-88
2022/05/21 12:35:47;;;;;;;7.05;1.67;;;18.00;94.50;;;;;;5057039;28;20044;-81
2022/05/21 12:38:29;;;;;;;7.00;1.95;;;18.00;92.80;;;;;;5073752;28;20447;-83
2022/05/21 12:41:25;;;;;;;7.28;1.63;;;17.90;93.30;;;;;;5075160;28;20426;-82
2022/05/21 12:43:52;;;;;;;7.15;1.60;;;17.90;92.60;;;;;;5055460;28;20117;-82
2022/05/21 12:46:33;;;;;;;6.30;1.60;;;18.00;93.10;;;;;;5056884;28;20123;-83
2022/05/21 12:49:01;;;;;;;9.45;1.85;;;18.00;93.10;;;;;;5056634;28;20053;-82
2022/05/21 12:51:33;;;;;;;8.15;1.75;;;18.00;92.80;;;;;;5056886;28;20493;-83
2022/05/21 12:54:00;;;;;;;6.78;1.70;;;18.00;92.50;;;;;;5057717;28;20049;-84
2022/05/21 12:56:34;;;;;;;6.13;1.58;;;17.90;92.50;;;;;;5073125;28;20121;-81
2022/05/21 12:59:07;;;;;;;7.97;1.80;;;17.80;92.20;;;;;;5056018;28;20119;-84
2022/05/21 13:01:34;;;;;;;8.65;1.60;;;17.80;92.60;;;;;;5073433;28;20117;-82
2022/05/21 13:04:00;;;;;;;10.07;1.63;;;17.80;92.70;;;;;;5056254;28;20381;-82
2022/05/21 13:06:31;;;;;;;6.55;1.63;;;17.80;92.60;;;;;;5072724;28;20048;-82
2022/05/21 13:08:59;;;;;;;8.30;1.60;;;17.80;91.60;;;;;;5072522;28;20063;-82
2022/05/21 13:11:27;;;;;;;5.53;1.30;;;17.90;90.90;;;;;;5056861;28;20056;-81
2022/05/21 13:14:03;;;;;;;6.13;1.50;;;18.00;90.80;;;;;;5073254;28;20059;-82
2022/05/21 13:16:28;;;;;;;4.68;1.40;;;18.00;91.20;;;;;;5073687;28;20040;-82
2022/05/21 13:19:28;;;;;;;7.38;1.80;;;18.10;92.10;;;;;;5022775;28;20040;-83
2022/05/21 13:22:00;;;;;;;6.40;1.30;;;18.10;90.70;;;;;;5072202;28;20052;-82
2022/05/21 13:24:53;;;;;;;6.10;1.35;;;18.10;91.80;;;;;;5056254;28;20041;-82
2022/05/21 13:27:20;;;;;;;7.30;1.67;;;18.30;90.90;;;;;;5073447;28;20054;-82
2022/05/21 13:29:46;;;;;;;6.68;1.55;;;18.30;90.40;;;;;;5055472;28;20049;-82